Strona główna
METAR-TAF:

METAR-TAF

Lotnisko :

Platforma wiertnicza

Goeree Le, Holandia

Szerokość geograficzna: 51-55-33N, Długość geograficzna: 3-40-12E, wysokość: 19 m

Aktualna obserwacja pogody

Raport powstał 22 minut temu, godzina 23:55 UTC
Wiatr 26 kt od zachodnio-południowy zachód
Temperatura 10°C
Wilgotność 82%
Ciśnienie 1019 hPa
Widzialność 10 km lub więcej

METAR: EHSC 222355Z AUTO 25026KT 9999 ///////// 10/07 Q1019 W08/H19

czas: 01:17 (00:17 UTC)


TAF: brakujący

Obserwacja i prognoza pogody dla ponad 4000 lotnisk (raport METAR i TAF).

Dostępne stacje oznaczono żółtymi i czerwonymi punktami na mapie.

Najedź kursorem aby zobaczyć nazwę stacji.

Kliknij aby zobaczyć obserwacje i prognozy pogody.

Aby zmienić mapę: kliknij na zielony przycisk z czarnym krzyżykiem, aby powiększyć; na zielony przycisk z myślnikiem, aby pomniejszyć; na zielone strzałki, aby przejść do map sąsiednich.


METAR-TAF: